Time;durP1;ratioP1;P1;durP2;ratioP2;P2;SDS_P1;SDS_P2;PMS_P1;PMS_P2;Temp;Humidity;BMP_temperature;BMP_pressure;BME280_temperature;BME280_humidity;BME280_pressure;Samples;Min_cycle;Max_cycle;Signal;HPM_P1;HPM_P2
2023/05/22 07:22:49;;;;;;;69.35;46.95;;;;;;;-145.79;86.00;77415.44;5280494;28;20401;-75
2023/05/22 07:25:20;;;;;;;61.05;46.75;;;;;;;-145.79;85.93;77411.19;5279398;28;20025;-74
2023/05/22 07:27:52;;;;;;;67.07;47.25;;;;;;;-145.79;85.76;77421.78;5279929;28;20021;-74
2023/05/22 07:30:23;;;;;;;70.13;45.20;;;;;;;-145.79;86.14;77400.59;5280175;28;20021;-74
2023/05/22 07:32:54;;;;;;;68.38;46.47;;;;;;;-145.79;85.69;77377.28;5279477;28;20029;-75
2023/05/22 07:35:26;;;;;;;63.03;46.22;;;;;;;-145.79;85.42;77392.13;5271916;28;20021;-74
2023/05/22 07:37:57;;;;;;;65.22;46.25;;;;;;;-145.79;85.40;77364.56;5275725;28;20056;-74
2023/05/22 07:40:28;;;;;;;70.10;46.47;;;;;;;-145.79;84.95;77368.78;5260052;28;20029;-74
2023/05/22 07:43:00;;;;;;;62.65;44.28;;;;;;;-145.79;85.28;77379.41;5259068;28;20025;-74
2023/05/22 07:45:31;;;;;;;61.95;46.35;;;;;;;-145.79;85.48;77383.63;5259074;28;20022;-76
2023/05/22 07:48:03;;;;;;;59.75;47.08;;;;;;;-145.79;85.74;77360.31;5258319;28;20104;-75
2023/05/22 07:50:34;;;;;;;60.50;47.00;;;;;;;-145.79;85.75;77356.06;5258407;28;20021;-75
2023/05/22 07:53:05;;;;;;;59.72;45.47;;;;;;;-145.79;85.21;77339.13;5260085;28;20427;-74
2023/05/22 07:55:40;;;;;;;60.33;47.13;;;;;;;-145.79;84.74;77337.00;5279178;28;20021;-74
2023/05/22 07:58:12;;;;;;;63.33;47.65;;;;;;;-145.79;84.88;77334.88;5279176;28;20041;-74
2023/05/22 08:00:44;;;;;;;67.13;48.38;;;;;;;-145.79;84.99;77328.53;5278133;28;20021;-75
2023/05/22 08:03:15;;;;;;;57.03;44.63;;;;;;;-145.79;84.45;77322.16;5279164;28;20025;-75
2023/05/22 08:05:46;;;;;;;59.42;48.35;;;;;;;-145.79;84.53;77317.94;5279250;28;20017;-75
2023/05/22 08:08:17;;;;;;;57.92;45.88;;;;;;;-145.79;84.72;77326.41;5278672;28;20036;-75
2023/05/22 08:10:49;;;;;;;70.30;48.40;;;;;;;-145.79;84.75;77303.09;5262589;28;20025;-72
2023/05/22 08:13:21;;;;;;;62.95;50.92;;;;;;;-145.79;84.58;77315.81;5264597;28;20096;-74
2023/05/22 08:15:52;;;;;;;65.03;48.85;;;;;;;-145.79;84.48;77296.72;5277985;28;20468;-74
2023/05/22 08:18:26;;;;;;;64.60;46.90;;;;;;;-145.79;84.36;77288.25;5279249;28;20431;-75
2023/05/22 08:20:59;;;;;;;63.28;49.35;;;;;;;-145.79;84.41;77292.50;5278675;28;20581;-74
2023/05/22 08:23:31;;;;;;;68.53;51.80;;;;;;;-145.79;84.45;77273.41;5278133;28;20025;-75
2023/05/22 08:26:03;;;;;;;77.25;50.58;;;;;;;-145.79;84.01;77262.81;5273925;28;20045;-74
2023/05/22 08:28:35;;;;;;;116.07;102.20;;;;;;;-145.79;83.98;77258.56;5270405;28;20164;-74
2023/05/22 08:31:06;;;;;;;64.22;51.22;;;;;;;-145.79;83.88;77247.97;5278949;28;20535;-74
2023/05/22 08:33:38;;;;;;;69.45;51.33;;;;;;;-145.79;83.00;77256.47;5268247;28;20128;-75
2023/05/22 08:36:10;;;;;;;70.80;51.38;;;;;;;-145.79;82.83;77252.22;5264233;28;20048;-75
2023/05/22 08:38:41;;;;;;;66.05;49.65;;;;;;;-145.79;83.11;77237.38;5264514;28;20027;-73
2023/05/22 08:41:14;;;;;;;64.50;49.95;;;;;;;-145.79;82.42;77224.66;5243437;28;20055;-75
2023/05/22 08:43:45;;;;;;;69.05;52.15;;;;;;;-145.79;82.64;77209.81;5243781;28;20030;-73
2023/05/22 08:46:18;;;;;;;69.32;52.28;;;;;;;-145.79;82.13;77211.94;5244539;28;20021;-73
2023/05/22 08:48:50;;;;;;;75.65;50.35;;;;;;;-145.79;82.07;77205.59;5243748;28;20033;-74
2023/05/22 08:51:27;;;;;;;70.10;50.95;;;;;;;-145.79;81.70;77188.63;5249255;28;20094;-73
2023/05/22 08:54:00;;;;;;;67.20;52.50;;;;;;;-145.79;81.33;77188.63;5264782;28;20024;-70
2023/05/22 08:56:32;;;;;;;67.30;52.22;;;;;;;-145.79;81.47;77201.34;5261651;28;20026;-70
2023/05/22 08:59:03;;;;;;;74.55;51.75;;;;;;;-145.79;81.60;77178.03;5253214;28;20032;-70
2023/05/22 09:01:35;;;;;;;70.10;51.55;;;;;;;-145.79;81.30;77186.50;5257320;28;20060;-70
2023/05/22 09:04:06;;;;;;;71.00;51.55;;;;;;;-145.79;80.97;77207.72;5257364;28;20517;-70
2023/05/22 09:06:41;;;;;;;61.58;52.25;;;;;;;-145.79;80.83;77203.47;5264398;28;20103;-70
2023/05/22 09:09:13;;;;;;;71.85;52.33;;;;;;;-145.79;80.98;77199.22;5264295;28;20403;-70
2023/05/22 09:11:44;;;;;;;59.90;48.85;;;;;;;-145.79;80.99;77180.16;5245259;28;20041;-74
2023/05/22 09:14:17;;;;;;;62.28;48.58;;;;;;;-145.79;80.58;77175.91;5249337;28;20020;-74
2023/05/22 09:16:51;;;;;;;59.67;48.10;;;;;;;-145.79;80.14;77165.31;5243933;28;20059;-73
2023/05/22 09:19:22;;;;;;;57.20;46.33;;;;;;;-145.79;79.72;77156.84;5254345;28;20029;-75
2023/05/22 09:22:01;;;;;;;57.05;45.90;;;;;;;-145.79;79.48;77142.00;5245676;28;20072;-73
2023/05/22 09:24:44;;;;;;;57.25;44.60;;;;;;;-145.79;79.39;77127.16;5242418;28;20031;-73
2023/05/22 09:27:21;;;;;;;60.83;47.97;;;;;;;-145.79;78.67;77144.13;5254909;28;20088;-73
2023/05/22 09:29:55;;;;;;;53.60;42.83;;;;;;;-145.79;78.96;77131.41;5242794;28;20033;-73
2023/05/22 09:32:29;;;;;;;50.05;43.38;;;;;;;-145.79;79.13;77131.41;5242024;28;20156;-73
2023/05/22 09:35:05;;;;;;;57.03;44.10;;;;;;;-145.79;78.96;77114.44;5254223;28;20029;-72
2023/05/22 09:37:37;;;;;;;54.42;46.17;;;;;;;-145.79;78.75;77112.31;5242921;28;20021;-73
2023/05/22 09:40:12;;;;;;;49.53;42.70;;;;;;;-145.79;78.17;77105.97;5242139;28;20047;-72
2023/05/22 09:42:44;;;;;;;49.55;43.58;;;;;;;-145.79;77.83;77091.13;5242991;28;20029;-72
2023/05/22 09:45:20;;;;;;;51.05;42.40;;;;;;;-145.79;77.46;77082.66;5241467;28;20107;-73
2023/05/22 09:47:51;;;;;;;46.95;39.95;;;;;;;-145.79;77.12;77063.59;5242202;28;20087;-71
2023/05/22 09:50:22;;;;;;;47.40;38.85;;;;;;;-145.79;76.80;77046.63;5242805;28;20025;-71
2023/05/22 09:52:55;;;;;;;48.03;41.15;;;;;;;-145.79;76.18;77029.66;5250303;28;20043;-72
2023/05/22 09:55:27;;;;;;;46.05;38.63;;;;;;;-145.79;75.49;77033.91;5251661;28;20350;-72
2023/05/22 09:58:03;;;;;;;45.65;39.05;;;;;;;-145.79;75.91;77004.25;5242125;28;20108;-72
2023/05/22 10:00:35;;;;;;;47.88;37.63;;;;;;;-145.79;75.41;77016.94;5241683;28;20049;-72
2023/05/22 10:03:11;;;;;;;39.25;35.13;;;;;;;-145.79;75.65;76991.53;5242354;28;20032;-73
2023/05/22 10:05:47;;;;;;;42.67;37.65;;;;;;;-145.79;74.80;77004.25;5242262;28;20496;-73
2023/05/22 10:08:23;;;;;;;40.55;35.85;;;;;;;-145.79;74.55;76995.75;5242120;28;20057;-73
2023/05/22 10:10:54;;;;;;;43.45;37.10;;;;;;;-145.79;74.51;76968.22;5258491;28;20170;-73
2023/05/22 10:13:27;;;;;;;43.70;37.58;;;;;;;-145.79;74.79;76997.88;5255233;28;20037;-73
2023/05/22 10:16:01;;;;;;;41.20;36.00;;;;;;;-145.79;74.46;76983.03;5262305;28;20372;-73
2023/05/22 10:18:36;;;;;;;39.35;34.72;;;;;;;-145.79;74.29;76953.38;5262299;28;20040;-73
2023/05/22 10:21:07;;;;;;;39.05;33.95;;;;;;;-145.79;73.86;76938.53;5261921;28;20147;-73
2023/05/22 10:23:39;;;;;;;40.60;36.42;;;;;;;-145.79;73.40;76932.19;5262485;28;20033;-73
2023/05/22 10:26:10;;;;;;;41.13;35.05;;;;;;;-145.79;72.89;76938.53;5249874;28;20033;-73
2023/05/22 10:28:46;;;;;;;38.88;34.88;;;;;;;-145.79;73.45;76919.47;5261315;28;20024;-73
2023/05/22 10:31:28;;;;;;;36.95;32.95;;;;;;;-145.79;73.29;76891.91;5262450;28;20204;-72
2023/05/22 10:34:04;;;;;;;37.83;33.65;;;;;;;-145.79;72.78;76879.19;5262982;28;20017;-72
2023/05/22 10:37:02;;;;;;;;;;;;;;;-145.79;72.35;76870.72;5248702;28;20040;-73
2023/05/22 10:40:09;;;;;;;41.05;34.47;;;;;;;-145.79;72.17;76853.75;5240912;28;20004;-78
2023/05/22 10:42:42;;;;;;;38.42;34.45;;;;;;;-145.79;71.49;76855.88;5256330;28;20037;-79
2023/05/22 10:45:13;;;;;;;38.78;34.53;;;;;;;-145.79;71.35;76872.84;5256269;28;20028;-78
2023/05/22 10:47:45;;;;;;;37.33;33.38;;;;;;;-145.79;72.35;76851.63;5257675;28;20360;-78
2023/05/22 10:50:16;;;;;;;35.70;32.17;;;;;;;-145.79;71.03;76841.03;5247697;28;20028;-77
2023/05/22 10:53:22;;;;;;;37.58;32.55;;;;;;;-145.79;70.68;76821.97;5241616;28;20032;-78
2023/05/22 10:56:01;;;;;;;36.80;32.22;;;;;;;-145.79;70.01;76798.66;5241650;28;20101;-79
2023/05/22 10:58:36;;;;;;;36.85;31.95;;;;;;;-145.79;69.05;76798.66;5251283;28;20032;-78
2023/05/22 11:01:15;;;;;;;34.97;31.17;;;;;;;-145.79;69.61;76802.91;5242855;28;20040;-80
2023/05/22 11:04:24;;;;;;;40.70;32.05;;;;;;;-145.79;69.72;76764.75;5240688;28;20064;-81
2023/05/22 11:07:05;;;;;;;36.10;32.00;;;;;;;-145.79;70.11;76749.91;5243347;28;20380;-80
2023/05/22 11:09:46;;;;;;;36.13;32.20;;;;;;;-145.79;68.92;76749.91;5242107;28;20327;-81
2023/05/22 11:12:26;;;;;;;34.95;30.25;;;;;;;-145.79;67.34;76745.69;5257291;28;20102;-81
2023/05/22 11:14:58;;;;;;;36.08;32.15;;;;;;;-145.79;67.60;76754.16;5260092;28;20029;-78
2023/05/22 11:17:50;;;;;;;31.75;28.65;;;;;;;-145.79;67.79;76709.66;5244530;28;20041;-80
2023/05/22 11:20:23;;;;;;;32.58;29.13;;;;;;;-145.79;67.32;76692.69;5243513;28;20037;-80
2023/05/22 11:22:55;;;;;;;32.03;29.05;;;;;;;-145.79;66.71;76724.47;5241080;28;20049;-80
2023/05/22 11:25:28;;;;;;;31.90;28.67;;;;;;;-145.79;66.82;76694.81;5255369;28;20029;-80
2023/05/22 11:28:04;;;;;;;32.80;29.30;;;;;;;-145.79;66.38;76686.34;5257119;28;20017;-84
2023/05/22 11:30:36;;;;;;;32.47;29.00;;;;;;;-145.79;66.56;76677.84;5248154;28;20036;-80
2023/05/22 11:33:08;;;;;;;30.88;27.60;;;;;;;-145.79;65.96;76665.16;5259714;28;20025;-80
2023/05/22 11:35:40;;;;;;;31.08;27.80;;;;;;;-145.79;65.75;76641.84;5256623;28;20383;-81
2023/05/22 11:38:13;;;;;;;33.92;30.40;;;;;;;-145.79;64.66;76631.22;5261753;28;20523;-77
2023/05/22 11:40:44;;;;;;;31.08;27.95;;;;;;;-145.79;63.60;76603.69;5261283;28;20033;-79
2023/05/22 11:43:28;;;;;;;30.50;27.30;;;;;;;-145.79;63.92;76584.59;5262207;28;20025;-77
2023/05/22 11:46:05;;;;;;;30.75;27.23;;;;;;;-145.79;63.71;76582.50;5261470;28;20022;-78
2023/05/22 11:48:47;;;;;;;30.50;27.33;;;;;;;-145.79;63.86;76603.69;5261766;28;20586;-79
2023/05/22 11:51:20;;;;;;;31.85;28.15;;;;;;;-145.79;63.99;76631.22;5249350;28;20025;-79
2023/05/22 11:53:54;;;;;;;29.95;26.92;;;;;;;-145.79;64.80;76635.47;5244949;28;20471;-82
2023/05/22 11:56:25;;;;;;;32.43;28.83;;;;;;;-145.79;64.84;76605.81;5258884;28;20040;-82
2023/05/22 11:58:57;;;;;;;32.75;27.70;;;;;;;-145.79;64.41;76580.38;5262319;28;20280;-76
2023/05/22 12:01:28;;;;;;;33.78;30.02;;;;;;;-145.79;63.59;76590.97;5247231;28;20377;-80
2023/05/22 12:04:00;;;;;;;32.05;28.90;;;;;;;-145.79;63.89;76571.91;5262250;28;20472;-81
2023/05/22 12:06:32;;;;;;;31.27;28.25;;;;;;;-145.79;63.46;76554.94;5259408;28;20496;-75
2023/05/22 12:09:03;;;;;;;30.17;27.08;;;;;;;-145.79;62.58;76550.69;5266179;28;20033;-84
2023/05/22 12:11:35;;;;;;;30.88;27.85;;;;;;;-145.79;62.67;76571.91;5250846;28;20079;-84
2023/05/22 12:14:10;;;;;;;32.00;27.70;;;;;;;-145.79;63.09;76542.22;5245837;28;20037;-80
2023/05/22 12:16:50;;;;;;;31.30;28.05;;;;;;;-145.79;62.90;76529.50;5261397;28;20099;-80
2023/05/22 12:19:24;;;;;;;34.03;28.80;;;;;;;-145.79;62.29;76563.41;5274634;28;20081;-81
2023/05/22 12:21:59;;;;;;;30.33;27.13;;;;;;;-145.79;63.16;76554.94;5261179;28;20069;-85
2023/05/22 12:24:46;;;;;;;28.70;25.73;;;;;;;-145.79;63.02;76514.69;5271624;28;20021;-84
2023/05/22 12:27:18;;;;;;;30.08;26.98;;;;;;;-145.79;62.28;76491.38;5251882;28;20399;-86
2023/05/22 12:29:51;;;;;;;31.55;28.10;;;;;;;-145.79;60.81;76512.56;5244740;28;20109;-81
2023/05/22 12:32:24;;;;;;;30.33;27.23;;;;;;;-145.79;61.42;76538.00;5245666;28;20035;-81
2023/05/22 12:34:57;;;;;;;27.42;24.48;;;;;;;-145.79;61.91;76510.44;5265647;28;20033;-81
2023/05/22 12:37:28;;;;;;;27.00;24.30;;;;;;;-145.79;62.45;76497.72;5267083;28;20025;-75
2023/05/22 12:40:03;;;;;;;26.88;24.05;;;;;;;-145.79;61.56;76487.13;5267044;28;20028;-81
2023/05/22 12:42:34;;;;;;;;;;;;;;;-145.79;61.34;76499.84;5266692;28;20025;-82
2023/05/22 12:45:07;;;;;;;27.58;24.75;;;;;;;-145.79;61.64;76512.56;5250082;28;19924;-80
2023/05/22 12:47:41;;;;;;;29.02;24.77;;;;;;;-145.79;62.10;76512.56;5253832;28;20120;-82
2023/05/22 12:50:15;;;;;;;27.23;24.42;;;;;;;-145.79;61.54;76491.38;5251432;28;20024;-82
2023/05/22 12:52:46;;;;;;;29.80;26.20;;;;;;;-145.79;60.23;76491.38;5268328;28;20090;-84
2023/05/22 12:55:18;;;;;;;26.13;23.63;;;;;;;-145.79;60.88;76461.69;5261469;28;20112;-75
2023/05/22 12:57:52;;;;;;;25.70;23.05;;;;;;;-145.79;60.61;76451.09;5252367;28;20088;-84
2023/05/22 13:00:25;;;;;;;27.10;24.30;;;;;;;-145.79;60.54;76504.09;5258282;28;20033;-84
2023/05/22 13:03:01;;;;;;;26.63;23.00;;;;;;;-145.79;59.90;76465.94;5267370;28;20482;-83
2023/05/22 13:08:07;;;;;;;28.98;24.60;;;;;;;-145.79;59.33;76448.97;5279921;22;20058;-84
2023/05/22 13:10:38;;;;;;;29.17;26.27;;;;;;;-145.79;59.41;76451.09;5232082;28;20037;-80
2023/05/22 13:13:09;;;;;;;29.10;23.50;;;;;;;-145.79;59.93;76440.50;5224503;28;20037;-81
2023/05/22 13:15:47;;;;;;;28.38;25.38;;;;;;;-145.79;59.84;76459.56;5224514;28;20018;-80
2023/05/22 13:18:18;;;;;;;26.92;23.88;;;;;;;-145.79;58.83;76440.50;5223213;28;20030;-77
2023/05/22 13:20:50;;;;;;;28.27;25.42;;;;;;;-145.79;58.12;76417.19;5223282;28;20080;-79
2023/05/22 13:23:22;;;;;;;27.00;24.10;;;;;;;-145.79;58.60;76400.25;5223117;28;20108;-77
2023/05/22 13:25:54;;;;;;;25.92;22.55;;;;;;;-145.79;58.05;76379.06;5222943;28;20026;-79
2023/05/22 13:28:28;;;;;;;31.83;28.52;;;;;;;-145.79;57.71;76389.66;5227940;28;20034;-80
2023/05/22 13:31:06;;;;;;;26.50;23.03;;;;;;;-145.79;57.91;76404.47;5232946;28;20068;-81
2023/05/22 13:33:43;;;;;;;24.23;21.60;;;;;;;-145.79;58.27;76415.06;5231035;28;20296;-82
2023/05/22 13:36:14;;;;;;;26.50;23.08;;;;;;;-145.79;57.96;76438.38;5228763;28;20037;-82
2023/05/22 13:38:46;;;;;;;32.13;28.80;;;;;;;-145.79;58.04;76432.03;5226299;28;20018;-83
2023/05/22 13:41:17;;;;;;;41.10;37.28;;;;;;;-145.79;58.06;76434.16;5227401;28;20026;-79
2023/05/22 13:43:48;;;;;;;25.85;22.48;;;;;;;-145.79;58.42;76446.88;5224701;28;20022;-81
2023/05/22 13:46:21;;;;;;;24.40;21.92;;;;;;;-145.79;58.70;76440.50;5223925;28;20069;-83
2023/05/22 13:48:52;;;;;;;25.33;22.58;;;;;;;-145.79;58.13;76436.28;5225863;28;20018;-83
2023/05/22 13:51:24;;;;;;;25.95;23.15;;;;;;;-145.79;58.14;76455.34;5223686;28;20379;-82
2023/05/22 13:53:58;;;;;;;24.52;22.00;;;;;;;-145.79;58.21;76457.47;5224197;28;20092;-80
2023/05/22 13:56:30;;;;;;;25.27;22.65;;;;;;;-145.79;58.18;76470.19;5223004;28;20026;-78
2023/05/22 13:59:03;;;;;;;26.30;23.50;;;;;;;-145.79;57.78;76472.28;5222310;28;20029;-78
2023/05/22 14:01:35;;;;;;;26.63;22.92;;;;;;;-145.79;57.97;76474.41;5222897;28;20068;-80
2023/05/22 14:04:08;;;;;;;24.73;22.08;;;;;;;-145.79;58.26;76461.69;5223427;28;20058;-84
2023/05/22 14:06:41;;;;;;;25.20;22.33;;;;;;;-145.79;58.34;76453.22;5221565;28;20073;-81
2023/05/22 14:09:13;;;;;;;26.48;23.38;;;;;;;-145.79;57.73;76470.19;5221678;28;20382;-79
2023/05/22 14:11:45;;;;;;;28.60;23.27;;;;;;;-145.79;57.66;76448.97;5221626;28;20041;-77
2023/05/22 14:14:22;;;;;;;25.65;21.25;;;;;;;-145.79;57.99;76451.09;5221213;28;20112;-78
2023/05/22 14:16:56;;;;;;;24.73;22.25;;;;;;;-145.79;57.22;76478.66;5221384;28;20381;-75
2023/05/22 14:19:27;;;;;;;26.02;20.85;;;;;;;-145.79;57.30;76457.47;5221742;28;20029;-76
2023/05/22 14:21:59;;;;;;;23.75;21.13;;;;;;;-145.79;56.68;76412.97;5221363;28;20072;-76
2023/05/22 14:24:30;;;;;;;24.27;19.50;;;;;;;-145.79;56.18;76402.38;5221873;28;20033;-77
2023/05/22 14:27:02;;;;;;;23.42;21.10;;;;;;;-145.79;56.24;76415.06;5221244;28;20385;-75
2023/05/22 14:29:33;;;;;;;25.80;22.08;;;;;;;-145.79;56.56;76427.78;5222014;28;20187;-75
2023/05/22 14:32:05;;;;;;;29.02;21.85;;;;;;;-145.79;56.73;76470.19;5221530;28;20065;-75
2023/05/22 14:34:36;;;;;;;22.42;20.05;;;;;;;-145.79;57.18;76451.09;5220604;28;20168;-76
2023/05/22 14:37:07;;;;;;;25.38;21.92;;;;;;;-145.79;57.15;76465.94;5220403;28;20018;-75
2023/05/22 14:39:39;;;;;;;29.77;26.58;;;;;;;-145.79;58.11;76516.78;5219259;28;20030;-75
2023/05/22 14:42:10;;;;;;;31.38;24.77;;;;;;;-145.79;59.30;76529.50;5219227;28;20041;-78
2023/05/22 14:44:42;;;;;;;32.35;24.92;;;;;;;-145.79;59.48;76516.78;5221145;28;20079;-78
2023/05/22 14:47:13;;;;;;;28.77;25.27;;;;;;;-145.79;59.42;76489.25;5213379;28;20041;-82
2023/05/22 14:49:44;;;;;;;35.88;26.67;;;;;;;-145.79;59.35;76510.44;5222897;28;20045;-73
2023/05/22 14:52:15;;;;;;;34.20;24.92;;;;;;;-145.79;59.62;76478.66;5221280;28;20029;-78
2023/05/22 14:54:47;;;;;;;33.83;27.15;;;;;;;-145.79;58.45;76465.94;5221654;28;20065;-76
2023/05/22 14:57:18;;;;;;;28.58;25.52;;;;;;;-145.79;57.98;76446.88;5219901;28;20083;-79
2023/05/22 14:59:50;;;;;;;30.95;26.92;;;;;;;-145.79;58.60;76470.19;5221007;28;20026;-78
2023/05/22 15:02:21;;;;;;;33.75;27.77;;;;;;;-145.79;59.19;76487.13;5220561;28;20018;-78
2023/05/22 15:04:52;;;;;;;36.35;29.00;;;;;;;-145.79;59.38;76495.59;5221902;28;20030;-78
2023/05/22 15:07:25;;;;;;;34.25;28.73;;;;;;;-145.79;59.74;76497.72;5220624;28;20440;-77
2023/05/22 15:09:56;;;;;;;33.90;27.02;;;;;;;-145.79;59.82;76504.09;5221629;28;20465;-73
2023/05/22 15:12:27;;;;;;;36.40;28.35;;;;;;;-145.79;60.22;76506.19;5220114;28;20026;-75
2023/05/22 15:15:00;;;;;;;33.40;26.25;;;;;;;-145.79;60.72;76538.00;5220012;28;20032;-73
2023/05/22 15:17:31;;;;;;;27.88;24.95;;;;;;;-145.79;60.40;76533.75;5219525;28;20036;-73
2023/05/22 15:20:04;;;;;;;31.60;24.15;;;;;;;-145.79;60.61;76538.00;5220892;28;20030;-73
2023/05/22 15:22:38;;;;;;;32.70;23.85;;;;;;;-145.79;60.79;76550.69;5220597;28;20487;-72
2023/05/22 15:25:10;;;;;;;28.60;23.80;;;;;;;-145.79;60.17;76563.41;5219261;28;20115;-73
2023/05/22 15:27:42;;;;;;;33.30;24.30;;;;;;;-145.79;60.39;76580.38;5219956;28;20061;-73
2023/05/22 15:30:15;;;;;;;27.85;23.08;;;;;;;-145.79;60.51;76580.38;5220132;28;20416;-70
2023/05/22 15:32:47;;;;;;;29.63;21.85;;;;;;;-145.79;60.78;76559.19;5219650;28;20092;-73
2023/05/22 15:35:18;;;;;;;30.83;22.17;;;;;;;-145.79;59.91;76580.38;5220404;28;20025;-72
2023/05/22 15:37:49;;;;;;;33.63;22.42;;;;;;;-145.79;60.45;76603.69;5219627;28;20555;-71
2023/05/22 15:40:21;;;;;;;29.10;22.38;;;;;;;-145.79;60.36;76601.56;5219494;28;20025;-71
2023/05/22 15:43:02;;;;;;;24.88;21.38;;;;;;;-145.79;60.80;76618.53;5220902;28;20037;-70
2023/05/22 15:45:36;;;;;;;25.73;22.60;;;;;;;-145.79;60.97;76635.47;5208668;28;20040;-72
2023/05/22 15:48:07;;;;;;;27.05;23.02;;;;;;;-145.79;61.27;76643.94;5223672;28;20052;-74
2023/05/22 15:50:38;;;;;;;30.63;22.33;;;;;;;-145.79;61.61;76643.94;5224668;28;20038;-82
2023/05/22 15:53:12;;;;;;;25.05;21.20;;;;;;;-145.79;61.46;76618.53;5224454;28;20121;-84
2023/05/22 15:55:43;;;;;;;29.42;22.83;;;;;;;-145.79;61.03;76614.28;5225872;28;20168;-83
2023/05/22 15:58:15;;;;;;;30.33;22.35;;;;;;;-145.79;61.02;76605.81;5224603;28;20109;-78
2023/05/22 16:00:46;;;;;;;29.23;24.52;;;;;;;-145.79;60.64;76586.72;5224305;28;20022;-74
2023/05/22 16:03:19;;;;;;;27.65;19.58;;;;;;;-145.79;60.42;76559.19;5224309;28;20033;-78
2023/05/22 16:05:50;;;;;;;23.83;18.83;;;;;;;-145.79;59.33;76546.47;5222032;28;20091;-76
2023/05/22 16:08:21;;;;;;;22.63;19.13;;;;;;;-145.79;59.16;76546.47;5230501;28;20101;-77
2023/05/22 16:10:54;;;;;;;25.35;19.13;;;;;;;-145.79;59.22;76542.22;5223617;28;20030;-74
2023/05/22 16:13:26;;;;;;;24.75;21.08;;;;;;;-145.79;59.03;76557.06;5223364;28;20473;-75
2023/05/22 16:15:58;;;;;;;24.75;18.02;;;;;;;-145.79;59.34;76533.75;5222313;28;20026;-75
2023/05/22 16:18:29;;;;;;;28.48;18.20;;;;;;;-145.79;59.22;76525.28;5221928;28;20022;-75
2023/05/22 16:21:00;;;;;;;25.58;18.63;;;;;;;-145.79;59.50;76538.00;5221614;28;20034;-75
2023/05/22 16:23:31;;;;;;;29.30;17.48;;;;;;;-145.79;59.66;76546.47;5222609;28;20034;-76
2023/05/22 16:26:12;;;;;;;26.27;19.17;;;;;;;-145.79;60.64;76565.53;5222605;28;20022;-76
2023/05/22 16:28:43;;;;;;;31.10;19.58;;;;;;;-145.79;61.46;76605.81;5221137;28;20026;-77
2023/05/22 16:31:16;;;;;;;22.55;18.17;;;;;;;-145.79;62.02;76605.81;5224430;28;20358;-76
2023/05/22 16:33:47;;;;;;;24.42;21.75;;;;;;;-145.79;62.38;76601.56;5223109;28;20626;-76
2023/05/22 16:36:18;;;;;;;18.70;16.80;;;;;;;-145.79;62.32;76614.28;5223912;28;20022;-76
2023/05/22 16:38:50;;;;;;;21.02;17.02;;;;;;;-145.79;62.46;76614.28;5222864;28;20436;-76
2023/05/22 16:41:22;;;;;;;19.88;16.20;;;;;;;-145.79;62.95;76618.53;5214750;28;20330;-76
2023/05/22 16:43:53;;;;;;;18.02;14.73;;;;;;;-145.79;62.88;76618.53;5223125;28;20076;-77
2023/05/22 16:46:26;;;;;;;16.95;15.23;;;;;;;-145.79;63.35;76639.72;5223649;28;20029;-76
2023/05/22 16:48:57;;;;;;;16.25;14.68;;;;;;;-145.79;63.23;76646.06;5222371;28;20063;-76
2023/05/22 16:51:32;;;;;;;16.45;13.32;;;;;;;-145.79;63.27;76631.22;5223940;28;20064;-80
